Time;durP1;ratioP1;P1;durP2;ratioP2;P2;SDS_P1;SDS_P2;PMS_P1;PMS_P2;Temp;Humidity;BMP_temperature;BMP_pressure;BME280_temperature;BME280_humidity;BME280_pressure;Samples;Min_cycle;Max_cycle;Signal;HPM_P1;HPM_P2
2023/01/06 00:00:04;;;;;;;4.45;2.08;;;;;;;-16.12;69.84;99028.97;4977084;28;20083;-74
2023/01/06 00:02:29;;;;;;;6.07;3.15;;;;;;;-16.15;70.22;99032.34;4977455;28;20082;-75
2023/01/06 00:04:54;;;;;;;3.33;2.28;;;;;;;-16.21;70.07;99037.28;4995968;28;20048;-79
2023/01/06 00:07:19;;;;;;;4.63;2.40;;;;;;;-16.23;69.21;99059.34;4962559;28;20499;-79
2023/01/06 00:09:43;;;;;;;9.20;3.30;;;;;;;-16.24;70.10;99053.38;4971183;28;20042;-78
2023/01/06 00:12:08;;;;;;;6.25;3.55;;;;;;;-16.28;69.33;99045.63;4937164;28;20129;-71
2023/01/06 00:14:33;;;;;;;4.20;2.25;;;;;;;-16.36;69.33;99053.06;4958362;28;20056;-72
2023/01/06 00:16:58;;;;;;;6.57;2.53;;;;;;;-16.43;69.40;99061.41;4956099;28;20424;-72
2023/01/06 00:19:22;;;;;;;3.78;1.77;;;;;;;-16.48;69.83;99049.38;4938317;28;20121;-73
2023/01/06 00:21:47;;;;;;;6.40;2.90;;;;;;;-16.50;70.34;99058.66;4920110;28;20050;-71
2023/01/06 00:24:12;;;;;;;8.82;1.88;;;;;;;-16.55;69.50;99061.06;4954107;28;20579;-73
2023/01/06 00:26:37;;;;;;;6.55;2.50;;;;;;;-16.56;69.77;99056.78;4942366;28;20053;-75
2023/01/06 00:29:02;;;;;;;7.47;3.33;;;;;;;-16.65;69.45;99060.00;4921294;28;20050;-74
2023/01/06 00:31:27;;;;;;;1.98;1.13;;;;;;;-16.65;69.45;99060.00;4938107;28;20042;-74
2023/01/06 00:33:51;;;;;;;4.57;2.25;;;;;;;-16.75;70.11;99088.63;4954608;28;20105;-75
2023/01/06 00:36:16;;;;;;;5.13;2.38;;;;;;;-16.76;69.48;99071.63;4941681;28;20425;-74
2023/01/06 00:38:41;;;;;;;4.03;1.77;;;;;;;-16.78;69.66;99086.00;4938670;28;20039;-75
2023/01/06 00:43:54;;;;;;;7.45;2.85;;;;;;;-16.80;69.59;99114.81;4955512;28;20046;-75
2023/01/06 00:46:18;;;;;;;2.90;1.90;;;;;;;-16.87;69.61;99090.84;4939081;28;20501;-75
2023/01/06 00:48:43;;;;;;;5.25;2.58;;;;;;;-16.92;69.72;99094.94;4954377;28;20397;-71
2023/01/06 00:51:08;;;;;;;4.75;2.65;;;;;;;-16.95;69.99;99099.97;4956320;28;20030;-70
2023/01/06 00:53:32;;;;;;;1.98;1.10;;;;;;;-16.96;69.33;99098.25;4948161;28;20045;-75
2023/01/06 00:56:00;;;;;;;4.38;2.85;;;;;;;-16.94;69.22;99099.16;4958145;28;20040;-74
2023/01/06 00:58:29;;;;;;;3.25;2.08;;;;;;;-16.99;69.48;99110.91;4975106;28;20408;-70
2023/01/06 01:00:53;;;;;;;1.02;0.90;;;;;;;-17.00;69.37;99101.53;4973804;28;20053;-71
2023/01/06 01:03:18;;;;;;;4.50;1.70;;;;;;;-17.01;69.92;99109.97;4967918;28;20038;-71
2023/01/06 01:05:44;;;;;;;1.88;1.38;;;;;;;-17.08;69.47;99113.19;4944161;28;20041;-71
2023/01/06 01:08:09;;;;;;;1.20;0.75;;;;;;;-17.09;70.16;99114.00;4932355;28;20042;-76
2023/01/06 01:10:33;;;;;;;1.08;0.98;;;;;;;-17.11;70.21;99119.06;4980427;28;20442;-74
2023/01/06 01:12:58;;;;;;;5.40;2.58;;;;;;;-17.16;69.74;99133.38;4963381;28;20049;-73
2023/01/06 01:15:22;;;;;;;3.53;1.98;;;;;;;-17.20;69.29;99139.19;4962832;28;20428;-71
2023/01/06 01:17:47;;;;;;;2.42;1.20;;;;;;;-17.26;69.23;99133.88;4980101;28;20205;-70
2023/01/06 01:20:12;;;;;;;5.30;2.40;;;;;;;-17.30;69.40;99142.28;4979415;28;20049;-72
2023/01/06 01:22:36;;;;;;;2.35;1.77;;;;;;;-17.33;69.42;99140.50;4963491;28;20045;-70
2023/01/06 01:25:01;;;;;;;6.03;2.47;;;;;;;-17.36;69.51;99155.66;4949520;28;20042;-72
2023/01/06 01:27:29;;;;;;;1.52;0.70;;;;;;;-17.38;68.94;99154.75;4972007;28;20038;-74
2023/01/06 01:29:54;;;;;;;2.75;1.75;;;;;;;-17.45;69.36;99162.16;4954565;28;20057;-73
2023/01/06 01:32:19;;;;;;;1.40;1.20;;;;;;;-17.48;69.48;99178.22;4989205;28;20041;-74
2023/01/06 01:34:43;;;;;;;1.63;0.73;;;;;;;-17.54;68.84;99177.16;4962985;28;20046;-70
2023/01/06 01:37:08;;;;;;;5.25;2.40;;;;;;;-17.63;69.23;99167.59;4979192;28;20037;-72
2023/01/06 01:39:33;;;;;;;5.63;2.30;;;;;;;-17.72;69.27;99175.81;4967914;28;20412;-70
2023/01/06 01:41:58;;;;;;;2.58;1.35;;;;;;;-17.75;68.42;99187.56;4965925;28;20386;-76
2023/01/06 01:44:44;;;;;;;2.83;1.65;;;;;;;-17.76;68.77;99183.28;4926434;28;20038;-73
2023/01/06 01:47:12;;;;;;;2.92;1.17;;;;;;;-17.82;68.74;99185.63;4963214;28;20121;-69
2023/01/06 01:49:39;;;;;;;4.78;1.75;;;;;;;-17.90;68.83;99190.47;4957849;28;20592;-70
2023/01/06 01:52:07;;;;;;;1.10;1.08;;;;;;;-17.97;68.78;99198.72;4940867;28;20566;-71
2023/01/06 01:54:33;;;;;;;5.18;1.60;;;;;;;-18.01;68.45;99193.47;4930840;28;20098;-68
2023/01/06 01:57:10;;;;;;;2.25;1.55;;;;;;;-18.03;68.59;99203.59;4937542;28;20050;-68
2023/01/06 01:59:37;;;;;;;4.43;1.90;;;;;;;-18.08;68.81;99213.63;4941968;28;20041;-74
2023/01/06 02:02:02;;;;;;;4.38;2.15;;;;;;;-18.08;68.95;99207.69;4957643;28;20033;-70
2023/01/06 02:04:27;;;;;;;4.35;2.90;;;;;;;-18.15;68.77;99216.75;4944560;28;20041;-71
2023/01/06 02:06:53;;;;;;;9.02;2.63;;;;;;;-18.17;68.81;99209.91;4944350;28;20085;-74
2023/01/06 02:09:39;;;;;;;4.10;2.60;;;;;;;-18.14;68.78;99207.44;4938609;28;20047;-74
2023/01/06 02:12:04;;;;;;;1.83;0.88;;;;;;;-18.14;69.11;99212.53;4932783;28;20046;-74
2023/01/06 02:14:29;;;;;;;7.15;2.50;;;;;;;-18.16;68.77;99215.03;4961313;28;20037;-75
2023/01/06 02:17:14;;;;;;;3.28;2.22;;;;;;;-18.14;68.61;99223.56;4978371;28;20068;-74
2023/01/06 02:20:20;;;;;;;7.72;2.72;;;;;;;-18.10;69.12;99222.00;4954609;28;20418;-74
2023/01/06 02:23:10;;;;;;;1.48;1.00;;;;;;;-18.12;69.23;99219.41;4934751;28;20041;-71
2023/01/06 02:25:47;;;;;;;5.28;1.73;;;;;;;-18.17;69.32;99233.66;4945134;28;20065;-74
2023/01/06 02:28:34;;;;;;;2.67;1.83;;;;;;;-18.18;69.10;99237.03;4977660;28;20499;-73
2023/01/06 02:31:14;;;;;;;3.70;2.13;;;;;;;-18.17;68.86;99242.97;4944391;28;20136;-74
2023/01/06 02:33:53;;;;;;;4.00;2.40;;;;;;;-18.19;68.91;99245.47;4944557;28;20475;-74
2023/01/06 02:36:46;;;;;;;3.63;1.67;;;;;;;-18.17;69.25;99237.88;4927192;28;20081;-75
2023/01/06 02:39:29;;;;;;;6.25;2.17;;;;;;;-18.12;69.55;99252.47;4945913;28;20045;-74
2023/01/06 02:42:24;;;;;;;1.13;1.10;;;;;;;-18.14;68.89;99256.66;4944578;28;20049;-74
2023/01/06 02:45:17;;;;;;;5.20;1.60;;;;;;;-18.12;68.86;99256.69;4883831;29;20048;-74
2023/01/06 02:47:47;;;;;;;2.00;1.35;;;;;;;-18.14;69.07;99259.19;4883525;29;20051;-75
2023/01/06 02:50:23;;;;;;;9.45;2.42;;;;;;;-18.15;69.19;99256.59;4855103;29;20145;-75
2023/01/06 02:53:17;;;;;;;6.55;2.97;;;;;;;-18.18;68.98;99266.69;4883779;29;20522;-76
2023/01/06 02:55:50;;;;;;;5.47;2.20;;;;;;;-18.20;68.91;99274.25;4846347;29;20063;-75
2023/01/06 02:58:27;;;;;;;3.70;2.22;;;;;;;-18.23;69.36;99273.25;4846157;29;20045;-76
2023/01/06 03:00:59;;;;;;;1.38;1.23;;;;;;;-18.24;69.27;99282.56;4845807;29;20061;-75
2023/01/06 03:03:31;;;;;;;4.03;1.77;;;;;;;-18.23;69.49;99296.16;4846529;29;20126;-75
2023/01/06 03:06:04;;;;;;;6.10;2.28;;;;;;;-18.24;69.38;99287.66;4861244;29;20052;-74
2023/01/06 03:08:30;;;;;;;7.45;1.95;;;;;;;-18.25;69.09;99301.19;4829996;29;20145;-72
2023/01/06 03:10:56;;;;;;;2.58;1.75;;;;;;;-18.30;69.35;99295.09;4845356;29;20128;-71
2023/01/06 03:13:46;;;;;;;2.85;1.80;;;;;;;-18.29;69.15;99301.91;4835912;29;20193;-74
2023/01/06 03:16:11;;;;;;;4.80;2.05;;;;;;;-18.33;68.75;99312.75;4829458;29;20044;-76
2023/01/06 03:18:40;;;;;;;3.95;2.72;;;;;;;-18.34;68.85;99316.13;4846091;29;20048;-78
2023/01/06 03:21:12;;;;;;;2.65;2.25;;;;;;;-18.35;69.12;99316.91;4858787;29;20168;-76
2023/01/06 03:23:39;;;;;;;2.25;1.42;;;;;;;-18.33;69.14;99314.44;4869384;29;20884;-76
2023/01/06 03:26:03;;;;;;;2.58;1.63;;;;;;;-18.36;69.16;99322.81;4900783;29;20186;-76
2023/01/06 03:28:29;;;;;;;3.13;1.45;;;;;;;-18.34;69.36;99326.28;4886213;29;20047;-77
2023/01/06 03:31:04;;;;;;;1.00;0.95;;;;;;;-18.34;69.07;99323.75;4918411;29;20047;-77
2023/01/06 03:33:42;;;;;;;2.42;1.25;;;;;;;-18.34;69.38;99325.41;4952259;28;20129;-74
2023/01/06 03:36:13;;;;;;;3.70;2.17;;;;;;;-18.34;69.08;99331.38;4925001;28;20128;-69
2023/01/06 03:38:55;;;;;;;8.50;2.72;;;;;;;-18.36;69.05;99332.13;4958526;28;20051;-73
2023/01/06 03:45:00;;;;;;;2.42;1.60;;;;;;;-18.41;69.00;99342.13;4958168;28;20041;-68
2023/01/06 03:47:48;;;;;;;2.55;2.10;;;;;;;-18.43;69.17;99352.25;4926285;28;20052;-69
2023/01/06 03:50:22;;;;;;;1.48;1.15;;;;;;;-18.45;69.01;99353.00;4939591;28;20081;-67
2023/01/06 03:53:11;;;;;;;1.67;1.55;;;;;;;-18.51;68.30;99350.22;4938043;28;20034;-69
2023/01/06 03:55:37;;;;;;;3.08;1.52;;;;;;;-18.55;68.67;99359.41;4920809;28;20042;-70
2023/01/06 03:58:05;;;;;;;2.47;1.27;;;;;;;-18.57;68.65;99360.19;4939080;28;20117;-74
2023/01/06 04:00:35;;;;;;;2.80;1.80;;;;;;;-18.59;69.05;99361.78;4956638;28;20042;-72
2023/01/06 04:03:08;;;;;;;3.17;1.80;;;;;;;-18.63;68.70;99367.59;4907861;28;20073;-71
2023/01/06 04:05:32;;;;;;;2.55;1.88;;;;;;;-18.65;68.95;99372.59;4938745;28;20038;-71
2023/01/06 04:07:59;;;;;;;2.38;1.65;;;;;;;-18.66;68.93;99368.31;4923653;28;20038;-78
2023/01/06 04:10:24;;;;;;;0.82;0.60;;;;;;;-18.68;69.04;99377.56;4956018;28;20057;-68
2023/01/06 04:12:53;;;;;;;1.40;0.82;;;;;;;-18.72;68.71;99377.38;4935140;28;20129;-68
2023/01/06 04:15:25;;;;;;;3.33;1.02;;;;;;;-18.72;68.85;99387.53;4951482;28;20558;-67
2023/01/06 04:17:52;;;;;;;2.22;1.40;;;;;;;-18.74;69.07;99389.16;4958537;28;20061;-65
2023/01/06 04:20:24;;;;;;;2.53;2.00;;;;;;;-18.76;68.89;99391.66;4958743;28;20499;-66
2023/01/06 04:22:55;;;;;;;4.90;1.92;;;;;;;-18.82;68.70;99391.38;4942492;28;20030;-66
2023/01/06 04:25:22;;;;;;;3.22;1.38;;;;;;;-18.84;69.11;99404.03;4974756;28;20065;-65
2023/01/06 04:27:46;;;;;;;3.33;1.95;;;;;;;-18.81;68.65;99400.75;4926686;28;20460;-65
2023/01/06 04:30:11;;;;;;;2.58;1.77;;;;;;;-18.85;69.06;99407.41;4943035;28;20489;-66
2023/01/06 04:32:36;;;;;;;2.63;1.75;;;;;;;-18.86;68.75;99405.66;4975721;28;20042;-66
2023/01/06 04:35:04;;;;;;;4.03;2.25;;;;;;;-18.84;68.77;99403.16;4942391;28;20061;-68
2023/01/06 04:37:29;;;;;;;0.20;0.20;;;;;;;-18.79;68.73;99406.75;4942479;28;20100;-68
2023/01/06 04:39:53;;;;;;;1.83;1.38;;;;;;;-18.87;68.59;99409.00;4962106;28;20037;-67
2023/01/06 04:42:21;;;;;;;1.83;1.42;;;;;;;-18.90;68.76;99416.50;4945139;28;20188;-68
2023/01/06 04:44:46;;;;;;;3.75;2.10;;;;;;;-18.93;68.80;99424.00;4947953;28;20045;-66
2023/01/06 04:47:10;;;;;;;3.25;1.02;;;;;;;-18.96;68.43;99433.19;4981982;28;20046;-67
2023/01/06 04:49:35;;;;;;;4.32;2.15;;;;;;;-18.98;68.41;99435.66;4955339;28;20038;-68
2023/01/06 04:52:00;;;;;;;2.30;1.50;;;;;;;-19.02;67.75;99436.31;4961846;28;20276;-67
2023/01/06 04:54:24;;;;;;;3.30;2.22;;;;;;;-19.04;68.33;99437.94;4983234;28;20088;-67
2023/01/06 04:56:49;;;;;;;2.10;1.73;;;;;;;-19.07;68.56;99445.41;4947609;28;20108;-67
2023/01/06 04:59:14;;;;;;;2.38;1.13;;;;;;;-19.12;68.09;99444.38;4961402;28;20535;-68
2023/01/06 05:01:38;;;;;;;5.13;2.78;;;;;;;-19.11;67.74;99458.81;4978718;28;20112;-68
2023/01/06 05:04:04;;;;;;;3.13;1.92;;;;;;;-19.15;68.33;99441.69;4961188;28;20041;-67
2023/01/06 05:06:29;;;;;;;1.55;0.47;;;;;;;-19.16;67.77;99439.94;4961106;28;20132;-69
2023/01/06 05:08:54;;;;;;;7.38;3.05;;;;;;;-19.21;68.23;99447.41;4978387;28;20543;-68
2023/01/06 05:11:23;;;;;;;0.82;0.82;;;;;;;-19.25;67.71;99447.19;4961078;28;20080;-69
2023/01/06 05:13:48;;;;;;;0.20;0.20;;;;;;;-19.29;68.05;99442.78;4931674;28;20045;-68
2023/01/06 05:16:25;;;;;;;14.25;2.72;;;;;;;-19.30;67.63;99446.16;4935427;28;20043;-68
2023/01/06 05:18:50;;;;;;;3.55;1.67;;;;;;;-19.33;67.78;99446.00;4964515;28;20033;-71
2023/01/06 05:21:15;;;;;;;2.10;1.23;;;;;;;-19.36;67.99;99440.78;4964474;28;20053;-69
2023/01/06 05:23:40;;;;;;;8.70;2.58;;;;;;;-19.39;68.08;99455.88;4960409;28;20100;-73
2023/01/06 05:26:05;;;;;;;0.93;0.82;;;;;;;-19.43;67.63;99451.50;4960435;28;20034;-72
2023/01/06 05:28:30;;;;;;;0.73;0.73;;;;;;;-19.45;67.65;99453.97;4960479;28;20718;-73
2023/01/06 05:31:02;;;;;;;2.90;2.33;;;;;;;-19.43;68.11;99459.97;4978298;28;20674;-73
2023/01/06 05:33:28;;;;;;;1.90;1.42;;;;;;;-19.47;68.02;99487.69;4928450;28;20053;-72
2023/01/06 05:36:01;;;;;;;1.60;1.17;;;;;;;-19.47;67.76;99473.34;4960020;28;20037;-72
2023/01/06 05:38:25;;;;;;;2.78;0.65;;;;;;;-19.48;67.84;99480.91;4978045;28;20042;-72
2023/01/06 05:40:51;;;;;;;3.65;1.77;;;;;;;-19.53;67.54;99488.34;4944336;28;20052;-72
2023/01/06 05:43:16;;;;;;;2.42;0.70;;;;;;;-19.49;67.52;99485.13;4952410;28;20042;-72
2023/01/06 05:45:40;;;;;;;3.60;2.10;;;;;;;-19.52;67.71;99496.00;4981928;28;20092;-71
2023/01/06 05:48:05;;;;;;;0.20;0.20;;;;;;;-19.52;67.81;99498.53;4927547;28;20496;-73
2023/01/06 05:50:29;;;;;;;2.13;0.65;;;;;;;-19.54;67.71;99497.63;4944952;28;20507;-67
2023/01/06 05:52:54;;;;;;;1.65;0.93;;;;;;;-19.52;67.28;99508.69;4945512;28;20050;-68
2023/01/06 05:55:19;;;;;;;1.30;1.02;;;;;;;-19.56;67.55;99516.13;4931028;28;20038;-68
2023/01/06 05:57:43;;;;;;;0.22;0.20;;;;;;;-19.59;67.32;99515.97;4978662;28;20122;-68
2023/01/06 06:00:09;;;;;;;1.58;0.63;;;;;;;-19.61;67.73;99515.91;4978119;28;20084;-68
2023/01/06 06:02:37;;;;;;;0.08;0.08;;;;;;;-19.61;67.68;99546.34;4960576;28;20080;-67
2023/01/06 06:05:01;;;;;;;3.38;2.42;;;;;;;-19.65;67.42;99529.28;4977437;28;20046;-68
2023/01/06 06:07:27;;;;;;;7.20;3.38;;;;;;;-19.67;66.87;99530.00;4943713;28;20037;-68
2023/01/06 06:09:52;;;;;;;4.07;1.35;;;;;;;-19.65;67.58;99536.00;4977150;28;20038;-69
2023/01/06 06:12:16;;;;;;;3.47;2.22;;;;;;;-19.63;67.40;99547.94;4943325;28;20091;-68
2023/01/06 06:14:41;;;;;;;1.17;0.88;;;;;;;-19.57;67.34;99544.84;4943188;28;20038;-68
2023/01/06 06:17:06;;;;;;;4.20;2.10;;;;;;;-19.55;67.22;99546.66;4966236;28;20112;-68
2023/01/06 06:19:30;;;;;;;1.50;0.93;;;;;;;-19.55;67.44;99550.84;4997095;28;20042;-68
2023/01/06 06:21:55;;;;;;;3.92;1.85;;;;;;;-19.56;67.31;99556.72;4995701;28;20052;-67
2023/01/06 06:24:19;;;;;;;4.65;2.63;;;;;;;-19.54;67.21;99560.19;4978799;28;20068;-68
2023/01/06 06:26:44;;;;;;;3.58;1.15;;;;;;;-19.56;67.29;99557.59;4996709;28;20063;-68
2023/01/06 06:29:09;;;;;;;1.48;0.45;;;;;;;-19.50;67.63;99584.03;4996722;28;20467;-67
2023/01/06 06:31:34;;;;;;;3.40;1.35;;;;;;;-19.52;67.38;99569.59;4962566;28;20492;-67
2023/01/06 06:34:01;;;;;;;1.63;0.47;;;;;;;-19.47;67.45;99574.00;4980690;28;20495;-67
2023/01/06 06:36:26;;;;;;;2.88;1.70;;;;;;;-19.47;67.11;99579.06;4981201;28;20388;-68
2023/01/06 06:38:52;;;;;;;12.88;2.38;;;;;;;-19.45;67.10;99585.09;4950802;28;20042;-68
2023/01/06 06:41:18;;;;;;;0.88;0.55;;;;;;;-19.39;67.11;99595.50;4970908;28;20053;-68
2023/01/06 06:43:43;;;;;;;3.08;2.35;;;;;;;-19.37;67.55;99592.25;4962537;28;20136;-68
2023/01/06 06:46:09;;;;;;;2.78;1.85;;;;;;;-19.34;66.88;99591.53;4996513;28;20148;-67
2023/01/06 06:48:33;;;;;;;1.13;0.65;;;;;;;-19.33;67.20;99599.22;4994626;28;20095;-68
2023/01/06 06:51:00;;;;;;;1.45;0.85;;;;;;;-19.25;67.28;99602.09;4983747;28;20049;-67
2023/01/06 06:53:25;;;;;;;3.05;1.85;;;;;;;-19.24;67.57;99603.84;4978583;28;20049;-68
2023/01/06 06:55:50;;;;;;;2.67;2.15;;;;;;;-19.19;66.96;99610.00;4978280;28;20045;-68
2023/01/06 06:58:14;;;;;;;1.65;1.20;;;;;;;-19.18;67.01;99622.72;4996391;28;20053;-69
2023/01/06 07:00:39;;;;;;;6.20;2.00;;;;;;;-19.15;66.80;99617.81;4961628;28;20053;-67
2023/01/06 07:03:04;;;;;;;0.45;0.45;;;;;;;-19.11;66.75;99628.09;4995290;28;20471;-67
2023/01/06 07:05:28;;;;;;;0.50;0.30;;;;;;;-19.08;67.25;99624.03;4995715;28;20045;-68
2023/01/06 07:07:53;;;;;;;9.95;1.45;;;;;;;-19.08;66.69;99624.03;4995871;28;20057;-67
2023/01/06 07:10:18;;;;;;;5.20;2.08;;;;;;;-19.03;66.75;99625.09;4994837;28;20402;-68
2023/01/06 07:12:42;;;;;;;4.05;2.22;;;;;;;-18.98;66.71;99633.81;4995892;28;20084;-67
2023/01/06 07:15:08;;;;;;;0.50;0.45;;;;;;;-18.92;66.91;99628.97;4996314;28;20132;-68
2023/01/06 07:17:32;;;;;;;3.97;2.92;;;;;;;-18.83;66.55;99626.84;4987157;28;20471;-67
2023/01/06 07:19:57;;;;;;;1.83;1.27;;;;;;;-18.69;66.63;99624.03;4996145;28;20381;-67
2023/01/06 07:22:21;;;;;;;2.47;1.55;;;;;;;-18.59;66.42;99627.03;4995877;28;20126;-66
2023/01/06 07:24:46;;;;;;;3.40;2.63;;;;;;;-18.50;66.59;99627.38;4994331;28;20529;-67
2023/01/06 07:27:11;;;;;;;8.48;3.08;;;;;;;-18.35;66.92;99624.63;4995825;28;20053;-68
2023/01/06 07:29:35;;;;;;;3.47;2.05;;;;;;;-18.19;66.89;99632.09;4995555;28;20125;-68
2023/01/06 07:32:00;;;;;;;2.55;1.40;;;;;;;-18.07;66.46;99642.78;4994356;28;20144;-68
2023/01/06 07:34:24;;;;;;;7.28;3.13;;;;;;;-17.93;66.08;99640.78;4995896;28;20048;-67
2023/01/06 07:36:49;;;;;;;2.13;1.85;;;;;;;-17.81;66.75;99646.38;4996145;28;20475;-67
2023/01/06 07:39:13;;;;;;;6.20;2.50;;;;;;;-17.70;66.06;99649.34;4995714;28;20081;-68
2023/01/06 07:41:38;;;;;;;5.45;2.67;;;;;;;-17.58;66.54;99670.16;4995103;28;20518;-66
2023/01/06 07:44:08;;;;;;;5.63;2.20;;;;;;;-17.48;66.01;99667.16;4979086;28;20037;-66
2023/01/06 07:46:33;;;;;;;6.30;3.75;;;;;;;-17.35;65.85;99679.56;4994488;28;20048;-66
2023/01/06 07:48:58;;;;;;;6.47;3.42;;;;;;;-17.21;65.98;99681.78;4990757;28;20619;-66
2023/01/06 07:51:22;;;;;;;5.55;3.42;;;;;;;-17.13;65.72;99683.81;4970480;28;20049;-65
2023/01/06 07:53:47;;;;;;;1.83;1.67;;;;;;;-16.99;65.68;99687.78;4996204;28;20134;-67
2023/01/06 07:56:11;;;;;;;9.10;3.65;;;;;;;-16.82;65.12;99688.41;4980439;28;20041;-66
2023/01/06 07:58:36;;;;;;;8.07;3.83;;;;;;;-16.63;65.31;99690.81;5012704;28;20518;-65
2023/01/06 08:01:08;;;;;;;14.70;4.25;;;;;;;-16.42;65.30;99684.72;4994134;28;20049;-67
2023/01/06 08:03:32;;;;;;;17.55;11.02;;;;;;;-16.21;64.29;99695.66;4993703;28;20063;-66
2023/01/06 08:05:57;;;;;;;9.95;5.03;;;;;;;-15.84;64.33;99693.56;4995355;28;20033;-66
2023/01/06 08:08:22;;;;;;;7.45;3.83;;;;;;;-15.46;59.49;99697.34;4978805;28;20867;-65
2023/01/06 08:10:47;;;;;;;13.05;4.90;;;;;;;-14.98;58.99;99697.13;4961776;28;20033;-68
2023/01/06 08:13:12;;;;;;;8.00;4.30;;;;;;;-14.32;57.27;99700.75;4998026;28;20140;-68
2023/01/06 08:15:37;;;;;;;9.43;3.97;;;;;;;-13.52;51.97;99702.84;5000385;28;20057;-67
2023/01/06 08:18:02;;;;;;;12.10;5.38;;;;;;;-12.94;50.19;99693.09;5000209;28;20091;-70
2023/01/06 08:20:27;;;;;;;9.48;4.45;;;;;;;-12.37;48.47;99697.75;5001433;28;20029;-69
2023/01/06 08:22:51;;;;;;;4.63;3.05;;;;;;;-11.85;49.18;99689.34;4999971;28;20496;-68
2023/01/06 08:25:16;;;;;;;9.00;4.32;;;;;;;-11.49;47.49;99681.38;5000386;28;20495;-69
2023/01/06 08:27:40;;;;;;;12.00;5.38;;;;;;;-11.32;46.63;99701.38;5001547;28;20076;-72
2023/01/06 08:30:06;;;;;;;9.65;3.53;;;;;;;-11.09;50.34;99693.19;4983853;28;20041;-69
2023/01/06 08:32:30;;;;;;;10.00;4.47;;;;;;;-10.85;47.79;99692.69;5000420;28;20462;-69
2023/01/06 08:34:55;;;;;;;11.68;4.47;;;;;;;-10.66;49.47;99701.53;5001485;28;20037;-69
2023/01/06 08:37:20;;;;;;;9.50;4.88;;;;;;;-10.61;43.68;99693.88;4983506;28;20073;-68
2023/01/06 08:39:44;;;;;;;13.05;5.63;;;;;;;-10.74;41.75;99701.44;4998273;28;20033;-70
2023/01/06 08:42:09;;;;;;;9.77;5.05;;;;;;;-10.85;43.03;99704.69;4972682;28;20056;-66
2023/01/06 08:44:34;;;;;;;13.23;5.22;;;;;;;-10.80;45.45;99708.19;4987285;28;20033;-67
2023/01/06 08:46:59;;;;;;;13.55;6.47;;;;;;;-10.82;43.61;99712.44;4999987;28;20048;-68
2023/01/06 08:49:23;;;;;;;14.75;5.90;;;;;;;-10.97;42.95;99713.09;4991191;28;20141;-67
2023/01/06 08:51:48;;;;;;;11.52;4.45;;;;;;;-11.02;47.22;99713.03;5000143;28;20458;-66
2023/01/06 08:54:13;;;;;;;8.38;4.43;;;;;;;-11.07;47.37;99719.81;5000118;28;20491;-68
2023/01/06 08:56:38;;;;;;;18.48;5.50;;;;;;;-11.28;42.29;99723.72;5001327;28;20041;-67
2023/01/06 08:59:04;;;;;;;9.57;4.65;;;;;;;-11.48;45.43;99731.97;5001367;28;20048;-66
2023/01/06 09:01:34;;;;;;;9.90;5.00;;;;;;;-11.75;43.45;99722.09;4983554;28;20120;-65
2023/01/06 09:04:01;;;;;;;10.85;5.45;;;;;;;-11.92;46.16;99727.75;4986852;28;20049;-67
2023/01/06 09:06:27;;;;;;;11.43;5.28;;;;;;;-11.97;44.55;99737.09;5000708;28;20041;-66
2023/01/06 09:08:52;;;;;;;9.05;4.60;;;;;;;-11.89;46.12;99732.97;4999316;28;20420;-67
2023/01/06 09:11:17;;;;;;;16.13;6.45;;;;;;;-11.91;45.44;99737.22;4983306;28;20496;-67
2023/01/06 09:13:42;;;;;;;9.25;4.82;;;;;;;-11.85;46.28;99738.19;4983201;28;20059;-67
2023/01/06 09:16:08;;;;;;;7.82;4.25;;;;;;;-11.92;44.60;99741.47;4982715;28;20037;-67
2023/01/06 09:18:33;;;;;;;11.40;6.60;;;;;;;-12.32;42.41;99752.66;5000770;28;20037;-66
2023/01/06 09:20:58;;;;;;;13.45;5.38;;;;;;;-12.43;44.01;99741.31;4982697;28;20045;-66
2023/01/06 09:23:23;;;;;;;7.72;4.22;;;;;;;-12.26;47.67;99752.78;4983027;28;20391;-66
2023/01/06 09:25:47;;;;;;;13.23;4.90;;;;;;;-12.13;45.55;99744.50;4995610;28;20128;-66
2023/01/06 09:28:12;;;;;;;8.65;4.70;;;;;;;-11.99;45.09;99726.78;4997869;28;20495;-68
2023/01/06 09:30:38;;;;;;;11.32;4.70;;;;;;;-11.96;44.07;99719.13;4997163;28;20041;-67
2023/01/06 09:33:03;;;;;;;11.65;5.28;;;;;;;-11.69;47.13;99713.59;4998737;28;20047;-68
2023/01/06 09:35:27;;;;;;;11.25;4.97;;;;;;;-11.35;46.52;99706.47;4997000;28;20049;-67
2023/01/06 09:37:53;;;;;;;11.82;4.97;;;;;;;-11.25;45.50;99711.78;4980572;28;20535;-67
2023/01/06 09:40:29;;;;;;;7.90;3.40;;;;;;;-11.14;49.53;99727.41;4997101;28;20549;-67
2023/01/06 09:43:09;;;;;;;9.30;4.57;;;;;;;-11.21;45.12;99723.88;4980227;28;20575;-68
2023/01/06 09:45:51;;;;;;;10.40;4.28;;;;;;;-11.59;44.49;99725.78;4996711;28;20045;-68
2023/01/06 09:48:21;;;;;;;10.63;4.72;;;;;;;-12.05;45.45;99708.66;4996232;28;20447;-68
2023/01/06 09:50:52;;;;;;;8.90;2.97;;;;;;;-12.21;47.66;99715.22;4966272;28;20159;-69
2023/01/06 09:53:27;;;;;;;8.75;5.03;;;;;;;-12.30;47.96;99725.28;4983783;28;20038;-70
2023/01/06 09:55:59;;;;;;;12.15;3.85;;;;;;;-12.17;48.97;99723.84;4983692;28;20403;-70
2023/01/06 09:58:31;;;;;;;8.77;4.13;;;;;;;-11.95;47.85;99725.13;4996946;28;20045;-70
2023/01/06 10:01:00;;;;;;;12.73;6.03;;;;;;;-12.06;43.02;99740.34;4998639;28;20047;-70
2023/01/06 10:03:26;;;;;;;5.40;2.90;;;;;;;-11.89;48.64;99738.97;5012902;28;20064;-70
2023/01/06 10:06:25;;;;;;;6.18;3.42;;;;;;;-11.63;50.19;99749.72;4979523;28;20048;-70
2023/01/06 10:09:07;;;;;;;7.53;3.67;;;;;;;-11.39;51.11;99746.69;4979467;28;20512;-68
2023/01/06 10:11:52;;;;;;;10.25;4.70;;;;;;;-11.14;49.31;99745.41;4996889;28;20060;-70
2023/01/06 10:14:38;;;;;;;11.80;6.63;;;;;;;-11.25;43.67;99749.53;4996906;28;20060;-69
2023/01/06 10:17:46;;;;;;;14.18;5.82;;;;;;;-11.78;41.09;99755.47;4978845;28;20085;-69
2023/01/06 10:20:33;;;;;;;12.73;5.47;;;;;;;-12.58;42.35;99752.09;4990970;28;20064;-69
2023/01/06 10:23:15;;;;;;;9.38;4.97;;;;;;;-12.55;45.90;99744.47;4995196;28;20052;-69
2023/01/06 10:25:45;;;;;;;13.95;6.03;;;;;;;-12.74;45.82;99747.44;4996581;28;20052;-69
2023/01/06 10:28:34;;;;;;;10.07;5.38;;;;;;;-13.03;46.06;99751.91;4989420;28;20244;-70
2023/01/06 10:31:15;;;;;;;16.77;6.25;;;;;;;-13.33;50.19;99753.78;4977812;28;20046;-68
2023/01/06 10:33:47;;;;;;;11.65;6.05;;;;;;;-13.63;50.46;99759.84;4995143;28;20037;-69
2023/01/06 10:36:17;;;;;;;14.20;6.25;;;;;;;-14.00;47.79;99768.25;4996282;28;20046;-69
2023/01/06 10:38:48;;;;;;;10.27;5.15;;;;;;;-14.32;47.33;99775.00;4995340;28;20525;-68
2023/01/06 10:41:24;;;;;;;18.08;5.72;;;;;;;-14.56;49.86;99776.00;4995302;28;20073;-68
2023/01/06 10:43:49;;;;;;;7.95;4.50;;;;;;;-14.95;49.14;99784.19;4996693;28;20037;-68
2023/01/06 10:46:15;;;;;;;8.77;4.18;;;;;;;-15.05;50.04;99794.06;4996792;28;20144;-68
2023/01/06 10:48:40;;;;;;;8.27;4.57;;;;;;;-15.25;50.16;99793.44;4994623;28;20050;-68
2023/01/06 10:51:17;;;;;;;8.00;5.05;;;;;;;-15.32;50.78;99800.00;4986280;28;20499;-68
2023/01/06 10:53:42;;;;;;;7.65;3.78;;;;;;;-15.43;51.48;99788.56;4995322;28;20568;-67
2023/01/06 10:56:08;;;;;;;8.55;4.88;;;;;;;-15.64;50.76;99792.97;4988391;28;20073;-67
2023/01/06 10:58:41;;;;;;;7.88;4.25;;;;;;;-15.63;52.89;99797.28;4988915;28;20071;-67
2023/01/06 11:01:16;;;;;;;16.52;4.53;;;;;;;-15.66;53.69;99792.06;4978599;28;20041;-67
2023/01/06 11:03:42;;;;;;;5.82;4.40;;;;;;;-15.83;51.79;99791.50;4994583;28;20053;-67
2023/01/06 11:06:44;;;;;;;8.43;4.07;;;;;;;-15.93;52.56;99790.28;4994623;28;20037;-67
2023/01/06 11:09:24;;;;;;;6.88;3.33;;;;;;;-16.08;52.34;99799.94;4937707;28;20058;-66
2023/01/06 11:11:52;;;;;;;8.93;4.80;;;;;;;-16.27;51.13;99800.09;4938153;28;20054;-65
2023/01/06 11:14:19;;;;;;;10.02;6.18;;;;;;;-16.48;52.02;99797.63;4934863;28;20050;-66
2023/01/06 11:17:08;;;;;;;9.02;5.57;;;;;;;-16.41;51.76;99803.81;4944210;28;20466;-66
2023/01/06 11:19:39;;;;;;;8.70;4.93;;;;;;;-16.61;51.99;99820.91;4954156;28;20493;-67
2023/01/06 11:22:25;;;;;;;8.57;3.60;;;;;;;-16.62;53.21;99809.00;4938178;28;20500;-67
2023/01/06 11:24:54;;;;;;;12.85;5.75;;;;;;;-16.78;53.23;99806.66;4954260;28;20058;-67
2023/01/06 11:27:19;;;;;;;9.68;3.55;;;;;;;-16.70;53.68;99811.25;4938800;28;20038;-66
2023/01/06 11:29:45;;;;;;;14.27;5.63;;;;;;;-16.89;53.12;99802.81;4939936;28;20056;-67
2023/01/06 11:32:22;;;;;;;12.13;4.85;;;;;;;-16.77;54.49;99804.19;4955409;28;20057;-67
2023/01/06 11:34:55;;;;;;;7.05;3.35;;;;;;;-16.74;54.04;99809.41;4938843;28;20046;-67
2023/01/06 11:37:40;;;;;;;13.57;4.40;;;;;;;-16.72;54.17;99804.38;4954521;28;20850;-66